Flag for France

Past Weather in Rouen, Normandie, France — Yesterday and Last 2 Weeks

Currently: 43 °F. Fog. (Weather station: Rouen Airport, France). See more current weather

Past Weather in Rouen — Graph

°F

Rouen Temperature Yesterday

Maximum temperature yesterday: 52 °F (at 2:00 pm)
Minimum temperature yesterday: 39 °F (at 4:30 am)
Average temperature yesterday: 45 °F

High & Low Weather Summary for the Past Weeks

 TemperatureHumidityPressure
High61 °F (Nov 18, 2:00 pm)100% (Nov 11, 7:30 pm)30.60 "Hg (Nov 11, 7:30 pm)
Low36 °F (Nov 20, 5:30 am)55% (Nov 12, 2:30 pm)29.53 "Hg (Nov 15, 11:00 am)
Average49 °F89%30.16 "Hg
* Reported Nov 11 7:00 pm — Nov 26 7:00 pm, Rouen. Weather by CustomWeather, © 2020

Note: Actual official high and low records may vary slightly from our data, if they occured in-between our weather recording intervals... More about our weather records

Rouen Weather History for the Previous 24 Hours

Scroll right to see more
 ConditionsComfort  
Time TempWeatherWind HumidityBarometerVisibility
7:00 pm
Thu, Nov 26
43 °FClear.5 mph100%30.09 "Hg4 mi
6:30 pm43 °FClear.5 mph100%30.09 "Hg4 mi
6:00 pm43 °FFog.5 mph93%30.09 "Hg3 mi
5:30 pm45 °FClear.3 mph93%30.09 "Hg4 mi
5:00 pm45 °FClear.3 mph100%30.09 "Hg5 mi
4:30 pm46 °FClear.No wind93%30.09 "Hg4 mi
4:00 pm48 °FClear.No wind87%30.09 "Hg6 mi
3:30 pm50 °FSunny.2 mph82%30.09 "Hg10 mi
3:00 pm52 °FSunny.3 mph77%30.09 "Hg10 mi
2:30 pm54 °FSunny.3 mph72%30.09 "Hg10 mi
2:00 pm54 °FSunny.2 mph77%30.09 "Hg10 mi
1:30 pm52 °FSunny.2 mph82%30.09 "Hg10 mi
1:00 pm52 °FSunny.3 mph77%30.09 "Hg10 mi
12:30 pm50 °FClear.1 mph82%30.09 "Hg6 mi
12:00 pm48 °FClear.2 mph87%30.12 "Hg4 mi
11:30 am48 °FClear.2 mph87%30.12 "Hg4 mi
11:00 am46 °FFog.No wind93%30.12 "Hg3 mi
10:30 am43 °FFog.1 mph100%30.12 "Hg2 mi
10:00 am41 °FFog.1 mph100%30.12 "Hg2 mi
9:30 am37 °FLight fog.2 mph100%30.12 "Hg1 mi
9:00 am36 °FFog.1 mph100%30.12 "Hg1 mi
8:30 am37 °FFog.3 mph100%30.09 "Hg1 mi
8:00 am37 °FFog.5 mph100%30.09 "Hg1 mi
7:30 am37 °FLight fog.5 mph100%30.09 "Hg1 mi
7:00 am37 °FFog.3 mph100%30.09 "Hg1 mi
6:30 am37 °FLight fog.2 mph100%30.09 "Hg1 mi
6:00 am37 °FFog.2 mph100%30.09 "Hg1 mi
5:30 am39 °FLight fog.2 mph100%30.09 "Hg2 mi
5:00 am37 °FFog.3 mph100%30.09 "Hg1 mi
4:30 am39 °FLight fog.5 mph100%30.09 "Hg2 mi
3:30 am37 °FFog.2 mph100%30.09 "Hg2 mi
3:00 am39 °FFog.3 mph100%30.09 "Hg3 mi
2:30 am41 °FFog.1 mph100%30.09 "Hg3 mi
2:00 am41 °FFog.3 mph100%30.07 "Hg3 mi
1:30 am41 °FClear.5 mph100%30.07 "Hg4 mi
1:00 am41 °FFog.7 mph100%30.07 "Hg3 mi
12:30 am41 °FFog.6 mph100%30.07 "Hg3 mi
12:00 am41 °FFog.7 mph100%30.07 "Hg3 mi
11:30 pm
Wed, Nov 25
41 °FClear.3 mph100%30.07 "Hg4 mi
11:00 pm41 °FFog.5 mph100%30.07 "Hg3 mi
10:30 pm43 °FClear.3 mph93%30.07 "Hg4 mi
10:00 pm45 °FClear.6 mph93%30.07 "Hg10 mi
9:30 pm45 °FClear.6 mph93%30.04 "Hg10 mi
9:00 pm46 °FClear.6 mph87%30.04 "Hg10 mi
8:30 pm46 °FClear.6 mph93%30.04 "Hg10 mi
8:00 pm48 °FMostly cloudy.7 mph87%30.04 "HgN/A
Weather by CustomWeather, © 2020

See weather overview